sensor_id;sensor_type;location;lat;lon;timestamp;P1;durP1;ratioP1;P2;durP2;ratioP2
30553;SDS011;17335;50.720;7.452;2022-11-20T00:01:23;24.23;;;10.85;;
30553;SDS011;17335;50.720;7.452;2022-11-20T00:03:52;24.60;;;10.13;;
30553;SDS011;17335;50.720;7.452;2022-11-20T00:06:20;24.75;;;9.93;;
30553;SDS011;17335;50.720;7.452;2022-11-20T00:08:47;24.38;;;9.82;;
30553;SDS011;17335;50.720;7.452;2022-11-20T00:11:15;24.15;;;10.10;;
30553;SDS011;17335;50.720;7.452;2022-11-20T00:13:44;23.45;;;9.23;;
30553;SDS011;17335;50.720;7.452;2022-11-20T00:16:13;22.15;;;8.90;;
30553;SDS011;17335;50.720;7.452;2022-11-20T00:18:42;25.35;;;9.25;;
30553;SDS011;17335;50.720;7.452;2022-11-20T00:21:11;23.90;;;9.63;;
30553;SDS011;17335;50.720;7.452;2022-11-20T00:23:40;23.25;;;8.93;;
30553;SDS011;17335;50.720;7.452;2022-11-20T00:26:08;22.15;;;8.70;;
30553;SDS011;17335;50.720;7.452;2022-11-20T00:28:37;25.00;;;10.45;;
30553;SDS011;17335;50.720;7.452;2022-11-20T00:31:11;24.27;;;9.07;;
30553;SDS011;17335;50.720;7.452;2022-11-20T00:33:39;22.65;;;9.55;;
30553;SDS011;17335;50.720;7.452;2022-11-20T00:36:08;21.17;;;9.55;;
30553;SDS011;17335;50.720;7.452;2022-11-20T00:38:36;21.13;;;9.52;;
30553;SDS011;17335;50.720;7.452;2022-11-20T00:41:04;24.60;;;9.68;;
30553;SDS011;17335;50.720;7.452;2022-11-20T00:43:32;19.13;;;8.90;;
30553;SDS011;17335;50.720;7.452;2022-11-20T00:48:30;24.80;;;9.52;;
30553;SDS011;17335;50.720;7.452;2022-11-20T00:50:57;22.55;;;8.63;;
30553;SDS011;17335;50.720;7.452;2022-11-20T00:53:24;26.02;;;10.63;;
30553;SDS011;17335;50.720;7.452;2022-11-20T00:55:52;26.80;;;10.15;;
30553;SDS011;17335;50.720;7.452;2022-11-20T00:58:20;22.27;;;9.82;;
30553;SDS011;17335;50.720;7.452;2022-11-20T01:00:48;24.13;;;10.07;;
30553;SDS011;17335;50.720;7.452;2022-11-20T01:03:16;21.40;;;8.65;;
30553;SDS011;17335;50.720;7.452;2022-11-20T01:05:51;26.77;;;10.77;;
30553;SDS011;17335;50.720;7.452;2022-11-20T01:08:17;25.55;;;9.50;;
30553;SDS011;17335;50.720;7.452;2022-11-20T01:10:44;25.85;;;10.68;;
30553;SDS011;17335;50.720;7.452;2022-11-20T01:13:10;25.73;;;10.40;;
30553;SDS011;17335;50.720;7.452;2022-11-20T01:16:01;23.00;;;10.13;;
30553;SDS011;17335;50.720;7.452;2022-11-20T01:18:29;26.88;;;10.80;;
30553;SDS011;17335;50.720;7.452;2022-11-20T01:20:59;27.42;;;11.27;;
30553;SDS011;17335;50.720;7.452;2022-11-20T01:23:29;23.35;;;10.02;;
30553;SDS011;17335;50.720;7.452;2022-11-20T01:25:56;28.02;;;10.88;;
30553;SDS011;17335;50.720;7.452;2022-11-20T01:28:25;26.63;;;11.27;;
30553;SDS011;17335;50.720;7.452;2022-11-20T01:30:52;27.23;;;10.95;;
30553;SDS011;17335;50.720;7.452;2022-11-20T01:33:19;27.20;;;10.85;;
30553;SDS011;17335;50.720;7.452;2022-11-20T01:35:45;23.13;;;10.20;;
30553;SDS011;17335;50.720;7.452;2022-11-20T01:38:12;28.25;;;12.00;;
30553;SDS011;17335;50.720;7.452;2022-11-20T01:40:38;24.52;;;10.45;;
30553;SDS011;17335;50.720;7.452;2022-11-20T01:43:12;27.38;;;10.15;;
30553;SDS011;17335;50.720;7.452;2022-11-20T01:48:35;23.23;;;10.50;;
30553;SDS011;17335;50.720;7.452;2022-11-20T01:51:06;23.45;;;9.57;;
30553;SDS011;17335;50.720;7.452;2022-11-20T01:53:38;24.83;;;10.40;;
30553;SDS011;17335;50.720;7.452;2022-11-20T01:56:12;28.35;;;10.02;;
30553;SDS011;17335;50.720;7.452;2022-11-20T01:58:42;23.98;;;10.13;;
30553;SDS011;17335;50.720;7.452;2022-11-20T02:01:14;24.45;;;10.43;;
30553;SDS011;17335;50.720;7.452;2022-11-20T02:03:41;25.80;;;10.02;;
30553;SDS011;17335;50.720;7.452;2022-11-20T02:06:11;23.73;;;9.85;;
30553;SDS011;17335;50.720;7.452;2022-11-20T02:08:45;26.92;;;10.07;;
30553;SDS011;17335;50.720;7.452;2022-11-20T02:11:12;26.30;;;10.20;;
30553;SDS011;17335;50.720;7.452;2022-11-20T02:13:39;23.00;;;9.82;;
30553;SDS011;17335;50.720;7.452;2022-11-20T02:16:19;23.35;;;9.95;;
30553;SDS011;17335;50.720;7.452;2022-11-20T02:18:52;26.95;;;9.95;;
30553;SDS011;17335;50.720;7.452;2022-11-20T02:21:32;23.38;;;9.40;;
30553;SDS011;17335;50.720;7.452;2022-11-20T02:26:49;25.58;;;9.57;;
30553;SDS011;17335;50.720;7.452;2022-11-20T02:29:22;20.95;;;8.63;;
30553;SDS011;17335;50.720;7.452;2022-11-20T02:31:52;25.58;;;10.75;;
30553;SDS011;17335;50.720;7.452;2022-11-20T02:34:21;21.67;;;9.75;;
30553;SDS011;17335;50.720;7.452;2022-11-20T02:36:48;21.60;;;8.82;;
30553;SDS011;17335;50.720;7.452;2022-11-20T02:39:16;24.27;;;10.48;;
30553;SDS011;17335;50.720;7.452;2022-11-20T02:41:44;25.05;;;9.90;;
30553;SDS011;17335;50.720;7.452;2022-11-20T02:44:10;24.08;;;10.70;;
30553;SDS011;17335;50.720;7.452;2022-11-20T02:46:37;24.23;;;10.40;;
30553;SDS011;17335;50.720;7.452;2022-11-20T02:49:03;27.08;;;10.93;;
30553;SDS011;17335;50.720;7.452;2022-11-20T02:51:31;24.35;;;10.02;;
30553;SDS011;17335;50.720;7.452;2022-11-20T02:53:58;23.52;;;10.27;;
30553;SDS011;17335;50.720;7.452;2022-11-20T02:56:25;26.35;;;10.05;;
30553;SDS011;17335;50.720;7.452;2022-11-20T02:58:51;25.90;;;10.45;;
30553;SDS011;17335;50.720;7.452;2022-11-20T03:01:18;23.58;;;9.88;;
30553;SDS011;17335;50.720;7.452;2022-11-20T03:03:45;22.10;;;9.73;;
30553;SDS011;17335;50.720;7.452;2022-11-20T03:06:12;26.33;;;10.23;;
30553;SDS011;17335;50.720;7.452;2022-11-20T03:08:39;19.77;;;8.57;;
30553;SDS011;17335;50.720;7.452;2022-11-20T03:11:06;24.25;;;10.18;;
30553;SDS011;17335;50.720;7.452;2022-11-20T03:13:33;21.60;;;9.43;;
30553;SDS011;17335;50.720;7.452;2022-11-20T03:16:11;23.58;;;9.70;;
30553;SDS011;17335;50.720;7.452;2022-11-20T03:18:40;22.13;;;9.75;;
30553;SDS011;17335;50.720;7.452;2022-11-20T03:21:07;20.58;;;9.50;;
30553;SDS011;17335;50.720;7.452;2022-11-20T03:23:36;26.02;;;9.73;;
30553;SDS011;17335;50.720;7.452;2022-11-20T03:26:07;23.13;;;10.05;;
30553;SDS011;17335;50.720;7.452;2022-11-20T03:28:35;24.38;;;10.82;;
30553;SDS011;17335;50.720;7.452;2022-11-20T03:31:06;22.67;;;9.82;;
30553;SDS011;17335;50.720;7.452;2022-11-20T03:33:34;21.00;;;10.05;;
30553;SDS011;17335;50.720;7.452;2022-11-20T03:36:02;21.63;;;9.77;;
30553;SDS011;17335;50.720;7.452;2022-11-20T03:38:33;23.48;;;9.30;;
30553;SDS011;17335;50.720;7.452;2022-11-20T03:41:04;23.38;;;9.68;;
30553;SDS011;17335;50.720;7.452;2022-11-20T03:43:33;26.42;;;10.52;;
30553;SDS011;17335;50.720;7.452;2022-11-20T03:46:00;23.48;;;9.63;;
30553;SDS011;17335;50.720;7.452;2022-11-20T03:48:27;25.52;;;9.38;;
30553;SDS011;17335;50.720;7.452;2022-11-20T03:50:54;23.45;;;9.70;;
30553;SDS011;17335;50.720;7.452;2022-11-20T03:53:37;22.98;;;9.55;;
30553;SDS011;17335;50.720;7.452;2022-11-20T03:56:04;24.45;;;10.35;;
30553;SDS011;17335;50.720;7.452;2022-11-20T03:58:32;25.67;;;11.25;;
30553;SDS011;17335;50.720;7.452;2022-11-20T04:01:10;25.27;;;10.40;;
30553;SDS011;17335;50.720;7.452;2022-11-20T04:03:44;29.00;;;10.98;;
30553;SDS011;17335;50.720;7.452;2022-11-20T04:08:42;23.58;;;10.70;;
30553;SDS011;17335;50.720;7.452;2022-11-20T04:11:14;29.50;;;11.05;;
30553;SDS011;17335;50.720;7.452;2022-11-20T04:13:48;28.38;;;11.43;;
30553;SDS011;17335;50.720;7.452;2022-11-20T04:16:20;27.80;;;11.18;;
30553;SDS011;17335;50.720;7.452;2022-11-20T04:18:50;26.05;;;10.20;;
30553;SDS011;17335;50.720;7.452;2022-11-20T04:21:19;27.92;;;10.98;;
30553;SDS011;17335;50.720;7.452;2022-11-20T04:23:45;26.35;;;10.88;;
30553;SDS011;17335;50.720;7.452;2022-11-20T04:26:12;23.83;;;10.63;;
30553;SDS011;17335;50.720;7.452;2022-11-20T04:28:39;29.35;;;11.40;;
30553;SDS011;17335;50.720;7.452;2022-11-20T04:31:06;25.80;;;10.30;;
30553;SDS011;17335;50.720;7.452;2022-11-20T04:33:35;27.75;;;11.05;;
30553;SDS011;17335;50.720;7.452;2022-11-20T04:36:03;24.88;;;10.35;;
30553;SDS011;17335;50.720;7.452;2022-11-20T04:38:32;31.13;;;11.38;;
30553;SDS011;17335;50.720;7.452;2022-11-20T04:41:00;26.63;;;10.95;;
30553;SDS011;17335;50.720;7.452;2022-11-20T04:43:27;29.98;;;12.70;;
30553;SDS011;17335;50.720;7.452;2022-11-20T04:45:55;34.22;;;11.75;;
30553;SDS011;17335;50.720;7.452;2022-11-20T04:48:22;29.00;;;12.10;;
30553;SDS011;17335;50.720;7.452;2022-11-20T04:50:50;29.42;;;11.27;;
30553;SDS011;17335;50.720;7.452;2022-11-20T04:53:17;33.53;;;12.27;;
30553;SDS011;17335;50.720;7.452;2022-11-20T04:55:44;31.27;;;12.27;;
30553;SDS011;17335;50.720;7.452;2022-11-20T04:58:11;30.65;;;11.30;;
30553;SDS011;17335;50.720;7.452;2022-11-20T05:00:38;30.70;;;11.32;;
30553;SDS011;17335;50.720;7.452;2022-11-20T05:03:05;32.05;;;12.55;;
30553;SDS011;17335;50.720;7.452;2022-11-20T05:05:33;30.42;;;11.98;;
30553;SDS011;17335;50.720;7.452;2022-11-20T05:08:00;28.80;;;11.68;;
30553;SDS011;17335;50.720;7.452;2022-11-20T05:10:27;31.50;;;11.93;;
30553;SDS011;17335;50.720;7.452;2022-11-20T05:12:53;31.70;;;12.32;;
30553;SDS011;17335;50.720;7.452;2022-11-20T05:15:20;35.47;;;12.75;;
30553;SDS011;17335;50.720;7.452;2022-11-20T05:17:49;32.45;;;11.98;;
30553;SDS011;17335;50.720;7.452;2022-11-20T05:20:16;32.50;;;13.05;;
30553;SDS011;17335;50.720;7.452;2022-11-20T05:22:43;30.95;;;11.88;;
30553;SDS011;17335;50.720;7.452;2022-11-20T05:25:10;36.08;;;12.95;;
30553;SDS011;17335;50.720;7.452;2022-11-20T05:27:37;30.02;;;12.50;;
30553;SDS011;17335;50.720;7.452;2022-11-20T05:30:04;31.00;;;11.48;;
30553;SDS011;17335;50.720;7.452;2022-11-20T05:32:31;30.48;;;12.60;;
30553;SDS011;17335;50.720;7.452;2022-11-20T05:34:58;42.05;;;13.98;;
30553;SDS011;17335;50.720;7.452;2022-11-20T05:37:24;38.20;;;12.88;;
30553;SDS011;17335;50.720;7.452;2022-11-20T05:39:51;32.65;;;12.10;;
30553;SDS011;17335;50.720;7.452;2022-11-20T05:42:17;32.92;;;12.57;;
30553;SDS011;17335;50.720;7.452;2022-11-20T05:44:59;34.50;;;12.80;;
30553;SDS011;17335;50.720;7.452;2022-11-20T05:47:30;35.05;;;13.30;;
30553;SDS011;17335;50.720;7.452;2022-11-20T05:49:59;29.30;;;12.48;;
30553;SDS011;17335;50.720;7.452;2022-11-20T05:52:27;38.90;;;13.65;;
30553;SDS011;17335;50.720;7.452;2022-11-20T05:54:55;28.05;;;10.93;;
30553;SDS011;17335;50.720;7.452;2022-11-20T05:57:22;33.05;;;11.32;;
30553;SDS011;17335;50.720;7.452;2022-11-20T05:59:48;36.40;;;12.88;;
30553;SDS011;17335;50.720;7.452;2022-11-20T06:02:15;36.90;;;12.68;;
30553;SDS011;17335;50.720;7.452;2022-11-20T06:04:41;34.60;;;12.50;;
30553;SDS011;17335;50.720;7.452;2022-11-20T06:07:08;30.25;;;12.20;;
30553;SDS011;17335;50.720;7.452;2022-11-20T06:09:34;32.88;;;11.70;;
30553;SDS011;17335;50.720;7.452;2022-11-20T06:12:03;36.30;;;12.60;;
30553;SDS011;17335;50.720;7.452;2022-11-20T06:14:29;38.45;;;13.07;;
30553;SDS011;17335;50.720;7.452;2022-11-20T06:16:56;36.50;;;12.40;;
30553;SDS011;17335;50.720;7.452;2022-11-20T06:19:22;36.40;;;13.55;;
30553;SDS011;17335;50.720;7.452;2022-11-20T06:21:50;32.90;;;12.23;;
30553;SDS011;17335;50.720;7.452;2022-11-20T06:24:17;33.58;;;12.57;;
30553;SDS011;17335;50.720;7.452;2022-11-20T06:26:44;38.80;;;12.82;;
30553;SDS011;17335;50.720;7.452;2022-11-20T06:29:10;32.35;;;12.35;;
30553;SDS011;17335;50.720;7.452;2022-11-20T06:31:37;32.33;;;12.80;;
30553;SDS011;17335;50.720;7.452;2022-11-20T06:34:04;35.78;;;11.15;;
30553;SDS011;17335;50.720;7.452;2022-11-20T06:36:32;30.67;;;11.73;;
30553;SDS011;17335;50.720;7.452;2022-11-20T06:38:59;25.25;;;10.95;;
30553;SDS011;17335;50.720;7.452;2022-11-20T06:41:27;24.48;;;10.15;;
30553;SDS011;17335;50.720;7.452;2022-11-20T06:43:54;20.13;;;9.30;;
30553;SDS011;17335;50.720;7.452;2022-11-20T06:46:21;23.38;;;10.48;;
30553;SDS011;17335;50.720;7.452;2022-11-20T06:48:48;24.35;;;10.63;;
30553;SDS011;17335;50.720;7.452;2022-11-20T06:51:17;25.40;;;10.00;;
30553;SDS011;17335;50.720;7.452;2022-11-20T06:53:44;22.00;;;9.95;;
30553;SDS011;17335;50.720;7.452;2022-11-20T06:56:11;25.90;;;10.25;;
30553;SDS011;17335;50.720;7.452;2022-11-20T06:58:38;26.17;;;11.63;;
30553;SDS011;17335;50.720;7.452;2022-11-20T07:01:06;24.73;;;10.25;;
30553;SDS011;17335;50.720;7.452;2022-11-20T07:03:35;22.70;;;9.93;;
30553;SDS011;17335;50.720;7.452;2022-11-20T07:06:03;21.65;;;9.52;;
30553;SDS011;17335;50.720;7.452;2022-11-20T07:08:31;23.52;;;10.32;;
30553;SDS011;17335;50.720;7.452;2022-11-20T07:10:58;24.95;;;11.20;;
30553;SDS011;17335;50.720;7.452;2022-11-20T07:13:29;24.90;;;10.63;;
30553;SDS011;17335;50.720;7.452;2022-11-20T07:15:59;24.40;;;10.88;;
30553;SDS011;17335;50.720;7.452;2022-11-20T07:18:30;26.27;;;10.43;;
30553;SDS011;17335;50.720;7.452;2022-11-20T07:21:00;24.40;;;10.35;;
30553;SDS011;17335;50.720;7.452;2022-11-20T07:23:31;29.17;;;10.73;;
30553;SDS011;17335;50.720;7.452;2022-11-20T07:25:58;27.60;;;11.00;;
30553;SDS011;17335;50.720;7.452;2022-11-20T07:28:29;22.02;;;10.02;;
30553;SDS011;17335;50.720;7.452;2022-11-20T07:30:55;28.67;;;11.88;;
30553;SDS011;17335;50.720;7.452;2022-11-20T07:33:21;28.35;;;11.27;;
30553;SDS011;17335;50.720;7.452;2022-11-20T07:35:48;27.52;;;11.90;;
30553;SDS011;17335;50.720;7.452;2022-11-20T07:38:14;28.77;;;10.93;;
30553;SDS011;17335;50.720;7.452;2022-11-20T07:40:41;24.50;;;10.52;;
30553;SDS011;17335;50.720;7.452;2022-11-20T07:43:07;29.48;;;12.02;;
30553;SDS011;17335;50.720;7.452;2022-11-20T07:45:34;25.65;;;10.80;;
30553;SDS011;17335;50.720;7.452;2022-11-20T07:48:03;27.92;;;10.93;;
30553;SDS011;17335;50.720;7.452;2022-11-20T07:50:29;24.33;;;9.93;;
30553;SDS011;17335;50.720;7.452;2022-11-20T07:53:04;29.67;;;11.55;;
30553;SDS011;17335;50.720;7.452;2022-11-20T07:55:31;24.58;;;10.00;;
30553;SDS011;17335;50.720;7.452;2022-11-20T07:57:58;28.50;;;11.65;;
30553;SDS011;17335;50.720;7.452;2022-11-20T08:00:25;24.00;;;10.15;;
30553;SDS011;17335;50.720;7.452;2022-11-20T08:02:52;26.05;;;10.93;;
30553;SDS011;17335;50.720;7.452;2022-11-20T08:05:19;24.63;;;10.40;;
30553;SDS011;17335;50.720;7.452;2022-11-20T08:07:46;27.60;;;10.88;;
30553;SDS011;17335;50.720;7.452;2022-11-20T08:10:13;29.23;;;12.10;;
30553;SDS011;17335;50.720;7.452;2022-11-20T08:12:50;30.23;;;12.45;;
30553;SDS011;17335;50.720;7.452;2022-11-20T08:15:37;38.33;;;13.80;;
30553;SDS011;17335;50.720;7.452;2022-11-20T08:18:09;35.75;;;13.90;;
30553;SDS011;17335;50.720;7.452;2022-11-20T08:20:57;37.17;;;12.73;;
30553;SDS011;17335;50.720;7.452;2022-11-20T08:23:24;43.80;;;15.00;;
30553;SDS011;17335;50.720;7.452;2022-11-20T08:25:50;37.85;;;13.57;;
30553;SDS011;17335;50.720;7.452;2022-11-20T08:28:17;37.25;;;13.88;;
30553;SDS011;17335;50.720;7.452;2022-11-20T08:30:47;34.90;;;13.50;;
30553;SDS011;17335;50.720;7.452;2022-11-20T08:33:14;41.85;;;15.32;;
30553;SDS011;17335;50.720;7.452;2022-11-20T08:35:40;38.40;;;14.63;;
30553;SDS011;17335;50.720;7.452;2022-11-20T08:38:08;32.65;;;12.73;;
30553;SDS011;17335;50.720;7.452;2022-11-20T08:40:35;43.47;;;13.98;;
30553;SDS011;17335;50.720;7.452;2022-11-20T08:43:01;43.53;;;13.80;;
30553;SDS011;17335;50.720;7.452;2022-11-20T08:45:28;35.47;;;13.45;;
30553;SDS011;17335;50.720;7.452;2022-11-20T08:48:00;39.10;;;13.70;;
30553;SDS011;17335;50.720;7.452;2022-11-20T08:50:27;32.95;;;12.93;;
30553;SDS011;17335;50.720;7.452;2022-11-20T08:52:53;35.97;;;13.63;;
30553;SDS011;17335;50.720;7.452;2022-11-20T08:55:20;39.45;;;13.98;;
30553;SDS011;17335;50.720;7.452;2022-11-20T08:57:46;30.67;;;11.95;;
30553;SDS011;17335;50.720;7.452;2022-11-20T09:00:16;29.10;;;11.88;;
30553;SDS011;17335;50.720;7.452;2022-11-20T09:02:43;32.20;;;13.23;;
30553;SDS011;17335;50.720;7.452;2022-11-20T09:05:09;34.20;;;13.95;;
30553;SDS011;17335;50.720;7.452;2022-11-20T09:07:36;33.42;;;13.20;;
30553;SDS011;17335;50.720;7.452;2022-11-20T09:10:02;33.53;;;12.60;;
30553;SDS011;17335;50.720;7.452;2022-11-20T09:12:49;38.97;;;13.38;;
30553;SDS011;17335;50.720;7.452;2022-11-20T09:15:17;34.92;;;13.55;;
30553;SDS011;17335;50.720;7.452;2022-11-20T09:17:50;40.17;;;14.93;;
30553;SDS011;17335;50.720;7.452;2022-11-20T09:20:21;35.95;;;14.65;;
30553;SDS011;17335;50.720;7.452;2022-11-20T09:22:47;35.25;;;13.75;;
30553;SDS011;17335;50.720;7.452;2022-11-20T09:25:14;36.50;;;14.10;;
30553;SDS011;17335;50.720;7.452;2022-11-20T09:27:41;35.78;;;13.88;;
30553;SDS011;17335;50.720;7.452;2022-11-20T09:30:12;36.33;;;14.55;;
30553;SDS011;17335;50.720;7.452;2022-11-20T09:32:40;39.28;;;15.35;;
30553;SDS011;17335;50.720;7.452;2022-11-20T09:35:07;38.35;;;14.32;;
30553;SDS011;17335;50.720;7.452;2022-11-20T09:37:34;35.53;;;14.63;;
30553;SDS011;17335;50.720;7.452;2022-11-20T09:40:01;36.33;;;14.75;;
30553;SDS011;17335;50.720;7.452;2022-11-20T09:45:13;37.10;;;14.40;;
30553;SDS011;17335;50.720;7.452;2022-11-20T09:56:02;34.35;;;13.35;;
30553;SDS011;17335;50.720;7.452;2022-11-20T09:58:38;37.20;;;14.68;;
30553;SDS011;17335;50.720;7.452;2022-11-20T10:01:10;33.53;;;12.73;;
30553;SDS011;17335;50.720;7.452;2022-11-20T10:04:00;34.20;;;14.07;;
30553;SDS011;17335;50.720;7.452;2022-11-20T10:06:31;32.67;;;13.38;;
30553;SDS011;17335;50.720;7.452;2022-11-20T10:14:36;31.80;;;12.23;;
30553;SDS011;17335;50.720;7.452;2022-11-20T10:20:02;25.45;;;10.93;;
30553;SDS011;17335;50.720;7.452;2022-11-20T10:30:34;25.73;;;11.55;;
30553;SDS011;17335;50.720;7.452;2022-11-20T10:38:44;26.48;;;11.13;;
30553;SDS011;17335;50.720;7.452;2022-11-20T10:41:17;29.63;;;12.63;;
30553;SDS011;17335;50.720;7.452;2022-11-20T10:44:14;26.10;;;11.27;;
30553;SDS011;17335;50.720;7.452;2022-11-20T10:47:02;27.92;;;10.63;;
30553;SDS011;17335;50.720;7.452;2022-11-20T10:49:31;29.20;;;12.25;;
30553;SDS011;17335;50.720;7.452;2022-11-20T10:54:59;29.70;;;11.85;;
30553;SDS011;17335;50.720;7.452;2022-11-20T11:00:35;30.20;;;10.70;;
30553;SDS011;17335;50.720;7.452;2022-11-20T11:03:02;28.33;;;10.23;;
30553;SDS011;17335;50.720;7.452;2022-11-20T11:08:17;23.35;;;10.65;;
30553;SDS011;17335;50.720;7.452;2022-11-20T11:10:48;25.70;;;10.93;;
30553;SDS011;17335;50.720;7.452;2022-11-20T11:13:22;26.77;;;11.77;;
30553;SDS011;17335;50.720;7.452;2022-11-20T11:15:50;25.25;;;10.90;;
30553;SDS011;17335;50.720;7.452;2022-11-20T11:18:27;33.13;;;11.70;;
30553;SDS011;17335;50.720;7.452;2022-11-20T11:20:56;25.38;;;10.55;;
30553;SDS011;17335;50.720;7.452;2022-11-20T11:25:59;26.98;;;10.65;;
30553;SDS011;17335;50.720;7.452;2022-11-20T11:28:27;25.75;;;10.30;;
30553;SDS011;17335;50.720;7.452;2022-11-20T11:30:54;25.48;;;9.88;;
30553;SDS011;17335;50.720;7.452;2022-11-20T11:33:23;25.77;;;11.13;;
30553;SDS011;17335;50.720;7.452;2022-11-20T11:35:52;29.50;;;11.93;;
30553;SDS011;17335;50.720;7.452;2022-11-20T11:38:28;33.42;;;15.05;;
30553;SDS011;17335;50.720;7.452;2022-11-20T11:40:56;30.27;;;13.02;;
30553;SDS011;17335;50.720;7.452;2022-11-20T11:43:24;31.88;;;13.38;;
30553;SDS011;17335;50.720;7.452;2022-11-20T11:51:37;35.42;;;13.15;;
30553;SDS011;17335;50.720;7.452;2022-11-20T11:54:16;30.13;;;13.07;;
30553;SDS011;17335;50.720;7.452;2022-11-20T11:56:50;25.98;;;11.18;;
30553;SDS011;17335;50.720;7.452;2022-11-20T11:59:41;32.75;;;13.85;;
30553;SDS011;17335;50.720;7.452;2022-11-20T12:05:19;34.08;;;12.45;;
30553;SDS011;17335;50.720;7.452;2022-11-20T12:13:30;30.88;;;11.43;;
30553;SDS011;17335;50.720;7.452;2022-11-20T12:15:59;31.40;;;12.57;;
30553;SDS011;17335;50.720;7.452;2022-11-20T12:18:26;28.55;;;11.27;;
30553;SDS011;17335;50.720;7.452;2022-11-20T12:20:59;27.98;;;11.40;;
30553;SDS011;17335;50.720;7.452;2022-11-20T12:23:55;27.60;;;12.30;;
30553;SDS011;17335;50.720;7.452;2022-11-20T12:29:13;31.55;;;11.70;;
30553;SDS011;17335;50.720;7.452;2022-11-20T12:37:33;27.55;;;10.15;;
30553;SDS011;17335;50.720;7.452;2022-11-20T12:40:26;21.65;;;9.27;;
30553;SDS011;17335;50.720;7.452;2022-11-20T12:43:21;24.60;;;9.82;;
30553;SDS011;17335;50.720;7.452;2022-11-20T12:54:25;27.83;;;10.70;;
30553;SDS011;17335;50.720;7.452;2022-11-20T13:00:14;26.77;;;8.88;;
30553;SDS011;17335;50.720;7.452;2022-11-20T13:03:05;26.85;;;10.70;;
30553;SDS011;17335;50.720;7.452;2022-11-20T13:06:14;21.67;;;9.02;;
30553;SDS011;17335;50.720;7.452;2022-11-20T13:08:47;25.00;;;10.20;;
30553;SDS011;17335;50.720;7.452;2022-11-20T13:11:40;24.27;;;9.77;;
30553;SDS011;17335;50.720;7.452;2022-11-20T13:14:31;24.52;;;9.85;;
30553;SDS011;17335;50.720;7.452;2022-11-20T13:19:54;25.58;;;9.88;;
30553;SDS011;17335;50.720;7.452;2022-11-20T13:22:28;21.63;;;8.77;;
30553;SDS011;17335;50.720;7.452;2022-11-20T13:25:09;26.08;;;10.88;;
30553;SDS011;17335;50.720;7.452;2022-11-20T13:27:46;21.95;;;9.52;;
30553;SDS011;17335;50.720;7.452;2022-11-20T13:30:15;23.88;;;9.25;;
30553;SDS011;17335;50.720;7.452;2022-11-20T13:35:31;26.60;;;10.05;;
30553;SDS011;17335;50.720;7.452;2022-11-20T13:40:49;29.00;;;10.32;;
30553;SDS011;17335;50.720;7.452;2022-11-20T13:45:58;29.23;;;10.90;;
30553;SDS011;17335;50.720;7.452;2022-11-20T13:48:39;26.63;;;11.15;;
30553;SDS011;17335;50.720;7.452;2022-11-20T13:54:22;23.98;;;10.35;;
30553;SDS011;17335;50.720;7.452;2022-11-20T13:57:31;24.85;;;10.10;;
30553;SDS011;17335;50.720;7.452;2022-11-20T14:00:20;24.52;;;9.68;;
30553;SDS011;17335;50.720;7.452;2022-11-20T14:05:35;26.17;;;10.73;;
30553;SDS011;17335;50.720;7.452;2022-11-20T14:08:04;22.35;;;10.27;;
30553;SDS011;17335;50.720;7.452;2022-11-20T14:10:37;26.70;;;11.05;;
30553;SDS011;17335;50.720;7.452;2022-11-20T14:13:18;24.73;;;10.68;;
30553;SDS011;17335;50.720;7.452;2022-11-20T14:15:46;23.58;;;9.32;;
30553;SDS011;17335;50.720;7.452;2022-11-20T14:18:14;26.27;;;10.57;;
30553;SDS011;17335;50.720;7.452;2022-11-20T14:20:46;30.70;;;11.25;;
30553;SDS011;17335;50.720;7.452;2022-11-20T14:23:22;22.17;;;9.55;;
30553;SDS011;17335;50.720;7.452;2022-11-20T14:25:55;26.30;;;10.70;;
30553;SDS011;17335;50.720;7.452;2022-11-20T14:28:28;25.42;;;10.57;;
30553;SDS011;17335;50.720;7.452;2022-11-20T14:30:56;26.25;;;10.25;;
30553;SDS011;17335;50.720;7.452;2022-11-20T14:33:25;27.70;;;10.40;;
30553;SDS011;17335;50.720;7.452;2022-11-20T14:35:54;28.77;;;10.88;;
30553;SDS011;17335;50.720;7.452;2022-11-20T14:38:26;25.35;;;10.15;;
30553;SDS011;17335;50.720;7.452;2022-11-20T14:41:05;25.95;;;10.95;;
30553;SDS011;17335;50.720;7.452;2022-11-20T14:43:32;20.85;;;8.95;;
30553;SDS011;17335;50.720;7.452;2022-11-20T14:46:03;24.80;;;10.15;;
30553;SDS011;17335;50.720;7.452;2022-11-20T14:48:33;23.15;;;10.80;;
30553;SDS011;17335;50.720;7.452;2022-11-20T14:56:38;19.45;;;8.93;;
30553;SDS011;17335;50.720;7.452;2022-11-20T14:59:04;23.67;;;9.90;;
30553;SDS011;17335;50.720;7.452;2022-11-20T15:01:32;20.60;;;9.23;;
30553;SDS011;17335;50.720;7.452;2022-11-20T15:06:28;30.67;;;15.02;;
30553;SDS011;17335;50.720;7.452;2022-11-20T15:08:55;26.20;;;14.30;;
30553;SDS011;17335;50.720;7.452;2022-11-20T15:11:27;30.85;;;14.88;;
30553;SDS011;17335;50.720;7.452;2022-11-20T15:13:57;25.20;;;12.82;;
30553;SDS011;17335;50.720;7.452;2022-11-20T15:16:27;26.60;;;14.85;;
30553;SDS011;17335;50.720;7.452;2022-11-20T15:18:54;27.58;;;15.07;;
30553;SDS011;17335;50.720;7.452;2022-11-20T15:21:21;29.08;;;15.55;;
30553;SDS011;17335;50.720;7.452;2022-11-20T15:23:48;27.65;;;11.80;;
30553;SDS011;17335;50.720;7.452;2022-11-20T15:26:20;25.70;;;12.10;;
30553;SDS011;17335;50.720;7.452;2022-11-20T15:28:52;25.83;;;12.68;;
30553;SDS011;17335;50.720;7.452;2022-11-20T15:31:20;24.35;;;12.07;;
30553;SDS011;17335;50.720;7.452;2022-11-20T15:33:48;26.67;;;12.55;;
30553;SDS011;17335;50.720;7.452;2022-11-20T15:36:15;23.05;;;9.93;;
30553;SDS011;17335;50.720;7.452;2022-11-20T15:38:41;25.52;;;12.05;;
30553;SDS011;17335;50.720;7.452;2022-11-20T15:41:08;26.08;;;11.07;;
30553;SDS011;17335;50.720;7.452;2022-11-20T15:43:36;24.30;;;11.35;;
30553;SDS011;17335;50.720;7.452;2022-11-20T15:46:04;22.65;;;11.63;;
30553;SDS011;17335;50.720;7.452;2022-11-20T15:48:35;19.38;;;9.27;;
30553;SDS011;17335;50.720;7.452;2022-11-20T15:53:52;19.10;;;9.57;;
30553;SDS011;17335;50.720;7.452;2022-11-20T15:56:20;16.20;;;7.85;;
30553;SDS011;17335;50.720;7.452;2022-11-20T15:58:47;24.73;;;8.38;;
30553;SDS011;17335;50.720;7.452;2022-11-20T16:01:15;20.67;;;8.15;;
30553;SDS011;17335;50.720;7.452;2022-11-20T16:03:43;18.52;;;7.93;;
30553;SDS011;17335;50.720;7.452;2022-11-20T16:06:10;17.20;;;7.70;;
30553;SDS011;17335;50.720;7.452;2022-11-20T16:08:37;17.65;;;6.82;;
30553;SDS011;17335;50.720;7.452;2022-11-20T16:11:03;16.33;;;6.88;;
30553;SDS011;17335;50.720;7.452;2022-11-20T16:13:30;15.52;;;6.15;;
30553;SDS011;17335;50.720;7.452;2022-11-20T16:16:20;12.73;;;6.18;;
30553;SDS011;17335;50.720;7.452;2022-11-20T16:18:49;12.05;;;5.80;;
30553;SDS011;17335;50.720;7.452;2022-11-20T16:21:15;14.90;;;5.75;;
30553;SDS011;17335;50.720;7.452;2022-11-20T16:23:42;11.20;;;5.43;;
30553;SDS011;17335;50.720;7.452;2022-11-20T16:26:18;15.50;;;6.35;;
30553;SDS011;17335;50.720;7.452;2022-11-20T16:28:45;16.48;;;7.25;;
30553;SDS011;17335;50.720;7.452;2022-11-20T16:31:13;15.00;;;6.88;;
30553;SDS011;17335;50.720;7.452;2022-11-20T16:33:42;13.77;;;7.25;;
30553;SDS011;17335;50.720;7.452;2022-11-20T16:36:10;13.00;;;5.95;;
30553;SDS011;17335;50.720;7.452;2022-11-20T16:38:38;11.75;;;5.38;;
30553;SDS011;17335;50.720;7.452;2022-11-20T16:41:05;16.23;;;5.47;;